Aeroporto :
LOGIN :

Iscrizione | Disclaimer

   EN    FR    IT 

 










Sommario :    VFR   VFR Marginale   IFR   IFR Intensivo   IFR Molto Intensivo
Visibilità : 
Base nubi : 
>= 8 km
>= 3000ft
5 / 8 km
1000 / 3000 ft
1500m / 5 km
500 / 1000 ft
800 / 1500m
200 / 500 ft
< 800m
< 200 ft
Simboli :   Temporali  Nebbia  Neve Forte  Precipitazioni Forti  Vento > 20 kt
SIGMETs :   Varie  Temporali  Ghiacco  Turbolenza  Onda orograficha  Ceneri Vulcaniche






- Altitudine del aeroporto : 776 ft
- Codice IATA : RMS


ETAR - Ramstein Air Base

ULTIMO METAR :
  • 162156Z AUTO 00000KT 9999 CLR 16/14 A2983 RMK AO2 SLP097 T01620137 $

METARs OBSOLETI :
  • 162056Z AUTO 00000KT 9999 CLR 16/14 A2983 RMK AO2 SLP097 T01610144 52010 $
  • 161956Z AUTO 00000KT 9999 CLR 18/14 A2982 RMK AO2 SLP093 T01760137 $
  • 161856Z AUTO 00000KT 9999 CLR 22/14 A2980 RMK AO2 SLP086 T02180137

TAF TAF ETAR
Valido dal 16 a 18 ore il 18 a 00 ore UTC


161800Z 1618/1724 07006KT 9999 FEW100 QNH2980INS
BECMG 1705/1706 10006KT 9000 -SHRA BKN100 QNH2980INS
BECMG 1708/1709 11009KT 9999 NSW FEW060 BKN080 QNH2979INS
TEMPO 1714/1718 19010G20KT 8000 -TSRA BKN060CB BKN100
BECMG 1721/1722 18006KT 9000 -SHRA BKN050 QNH2981INS TX29/1714Z TN16/1704Z



MetMap, La meteo Aeronautica in un colpo d'occhio ! - Copyright ORBIFLY Dicembre 2007 - Disclaimer

ORBIFLY MET'MAP TEAM :

Programmazione e sviluppo : Alexandra Zaïnal
Concezione : Baudouin d'Aumeries
Supporto tecnico e logistico : Manuel Goepfert
Aiuto : Marc-Olivier Méhu
Aiuto per la traduzione : Arnaldo La Scala




FONTI E CREDITI :

   NOAA